Accueil
METAR-TAF:

METAR-TAF

Aéroports :

Aéroport international Sultan Mahmud Badaruddin II

Palembang, Indonésie

latitude: 02-54S, longitude: 104-42E, altitude: 10 m

Observation

Le bulletin a été fait il y a 29 minutes, à 03:00 UTC
Vent 10 kt de est/sud-est, variant entre est et sud/sud-est
Température 31°C
Humidité 66%
Pression 1011 hPa
Visibilité: 8000 m
Nuages épars à une hauteur de 1000 ft

METAR: WIPP 220300Z 12010KT 090V150 8000 SCT010 31/24 Q1011 NOSIG

Heure: 10:29 (03:29 UTC)

Prévision

Le bulletin a été fait il y a 4 heures et 29 minutes, à 23:00 UTC
Prévision valable du 22 à 00 UTC au 22 à 24 UTC
Vent 7 kt de sud/sud-est
Visibilité 10 km ou plus
Nuages épars à une hauteur de 1000 ft
Temporairement
du 22 à 20 UTC au 22 à 24 UTC
Visibilité: 3000 m
brume,

TAF: WIPP 212300Z 2200/2224 15007KT 9999 SCT010 TEMPO 2220/2224 3000 BR

Observations et prévisions météorologiques de plus de 4000 aéroports (messages METAR et TAF).

Les stations disponibles sont représentées par des disques jaunes et rouges sur la carte.

Passer la souris dessus pour voir le nom de la station.

Cliquer dessus pour voir les observations et prévisions météorologiques.

Pour changer de carte: cliquez sur les boutons verts avec une croix noire pour zoomer, sur le bouton vert avec un tiret pour effectuer un zoom arrière, ou sur les flèches vertes pour les cartes adjacentes.


METAR-TAF: